sensor_id;sensor_type;location;lat;lon;timestamp;P1;durP1;ratioP1;P2;durP2;ratioP2
35961;SDS011;22044;48.298;10.008;2023-10-19T00:02:23;29.47;;;25.30;;
35961;SDS011;22044;48.298;10.008;2023-10-19T00:05:07;31.87;;;26.97;;
35961;SDS011;22044;48.298;10.008;2023-10-19T00:07:54;36.70;;;28.43;;
35961;SDS011;22044;48.298;10.008;2023-10-19T00:10:41;30.90;;;26.27;;
35961;SDS011;22044;48.298;10.008;2023-10-19T00:13:26;33.67;;;26.53;;
35961;SDS011;22044;48.298;10.008;2023-10-19T00:16:12;34.80;;;28.90;;
35961;SDS011;22044;48.298;10.008;2023-10-19T00:19:00;34.00;;;27.93;;
35961;SDS011;22044;48.298;10.008;2023-10-19T00:21:46;32.83;;;28.67;;
35961;SDS011;22044;48.298;10.008;2023-10-19T00:24:40;36.03;;;28.90;;
35961;SDS011;22044;48.298;10.008;2023-10-19T00:27:28;34.60;;;28.83;;
35961;SDS011;22044;48.298;10.008;2023-10-19T00:30:13;33.97;;;28.57;;
35961;SDS011;22044;48.298;10.008;2023-10-19T00:33:02;37.67;;;29.40;;
35961;SDS011;22044;48.298;10.008;2023-10-19T00:35:49;36.23;;;29.73;;
35961;SDS011;22044;48.298;10.008;2023-10-19T00:38:44;37.30;;;30.33;;
35961;SDS011;22044;48.298;10.008;2023-10-19T00:41:37;38.17;;;31.17;;
35961;SDS011;22044;48.298;10.008;2023-10-19T00:44:24;42.33;;;32.37;;
35961;SDS011;22044;48.298;10.008;2023-10-19T00:47:20;37.90;;;29.90;;
35961;SDS011;22044;48.298;10.008;2023-10-19T00:50:09;37.87;;;30.63;;
35961;SDS011;22044;48.298;10.008;2023-10-19T00:52:59;39.13;;;30.93;;
35961;SDS011;22044;48.298;10.008;2023-10-19T00:55:48;37.10;;;30.03;;
35961;SDS011;22044;48.298;10.008;2023-10-19T00:58:37;42.77;;;32.87;;
35961;SDS011;22044;48.298;10.008;2023-10-19T01:01:25;40.50;;;30.93;;
35961;SDS011;22044;48.298;10.008;2023-10-19T01:04:13;39.33;;;30.50;;
35961;SDS011;22044;48.298;10.008;2023-10-19T01:07:03;39.30;;;31.67;;
35961;SDS011;22044;48.298;10.008;2023-10-19T01:09:56;40.70;;;31.33;;
35961;SDS011;22044;48.298;10.008;2023-10-19T01:12:43;39.40;;;31.00;;
35961;SDS011;22044;48.298;10.008;2023-10-19T01:15:30;41.17;;;31.63;;
35961;SDS011;22044;48.298;10.008;2023-10-19T01:18:20;40.37;;;32.27;;
35961;SDS011;22044;48.298;10.008;2023-10-19T01:21:06;40.87;;;31.00;;
35961;SDS011;22044;48.298;10.008;2023-10-19T01:23:53;40.77;;;31.67;;
35961;SDS011;22044;48.298;10.008;2023-10-19T01:26:38;41.30;;;32.97;;
35961;SDS011;22044;48.298;10.008;2023-10-19T01:29:24;41.83;;;31.07;;
35961;SDS011;22044;48.298;10.008;2023-10-19T01:32:12;40.67;;;31.77;;
35961;SDS011;22044;48.298;10.008;2023-10-19T01:34:59;41.13;;;32.80;;
35961;SDS011;22044;48.298;10.008;2023-10-19T01:37:44;42.03;;;32.73;;
35961;SDS011;22044;48.298;10.008;2023-10-19T01:40:30;47.23;;;34.77;;
35961;SDS011;22044;48.298;10.008;2023-10-19T01:43:16;48.73;;;35.70;;
35961;SDS011;22044;48.298;10.008;2023-10-19T01:46:04;48.03;;;36.33;;
35961;SDS011;22044;48.298;10.008;2023-10-19T01:48:55;48.77;;;37.00;;
35961;SDS011;22044;48.298;10.008;2023-10-19T01:51:41;50.72;;;42.35;;
35961;SDS011;22044;48.298;10.008;2023-10-19T01:54:27;47.07;;;37.23;;
35961;SDS011;22044;48.298;10.008;2023-10-19T01:57:14;49.23;;;37.00;;
35961;SDS011;22044;48.298;10.008;2023-10-19T02:00:00;49.03;;;35.13;;
35961;SDS011;22044;48.298;10.008;2023-10-19T02:02:56;44.87;;;34.30;;
35961;SDS011;22044;48.298;10.008;2023-10-19T02:05:43;44.57;;;33.43;;
35961;SDS011;22044;48.298;10.008;2023-10-19T02:08:28;37.77;;;31.00;;
35961;SDS011;22044;48.298;10.008;2023-10-19T02:11:14;42.67;;;33.07;;
35961;SDS011;22044;48.298;10.008;2023-10-19T02:14:03;37.10;;;30.00;;
35961;SDS011;22044;48.298;10.008;2023-10-19T02:16:59;44.53;;;32.97;;
35961;SDS011;22044;48.298;10.008;2023-10-19T02:19:47;38.07;;;30.17;;
35961;SDS011;22044;48.298;10.008;2023-10-19T02:22:33;39.47;;;30.17;;
35961;SDS011;22044;48.298;10.008;2023-10-19T02:25:19;36.93;;;29.63;;
35961;SDS011;22044;48.298;10.008;2023-10-19T02:28:05;35.33;;;27.73;;
35961;SDS011;22044;48.298;10.008;2023-10-19T02:30:52;41.13;;;31.37;;
35961;SDS011;22044;48.298;10.008;2023-10-19T02:33:38;40.10;;;30.70;;
35961;SDS011;22044;48.298;10.008;2023-10-19T02:36:23;36.17;;;29.70;;
35961;SDS011;22044;48.298;10.008;2023-10-19T02:39:12;39.03;;;29.83;;
35961;SDS011;22044;48.298;10.008;2023-10-19T02:42:00;37.30;;;30.50;;
35961;SDS011;22044;48.298;10.008;2023-10-19T02:44:47;39.80;;;30.10;;
35961;SDS011;22044;48.298;10.008;2023-10-19T02:47:35;36.47;;;30.30;;
35961;SDS011;22044;48.298;10.008;2023-10-19T02:50:21;38.90;;;28.97;;
35961;SDS011;22044;48.298;10.008;2023-10-19T02:53:07;39.53;;;29.90;;
35961;SDS011;22044;48.298;10.008;2023-10-19T02:55:56;36.30;;;29.70;;
35961;SDS011;22044;48.298;10.008;2023-10-19T02:58:46;38.77;;;31.30;;
35961;SDS011;22044;48.298;10.008;2023-10-19T03:01:32;36.43;;;30.13;;
35961;SDS011;22044;48.298;10.008;2023-10-19T03:04:19;40.70;;;31.80;;
35961;SDS011;22044;48.298;10.008;2023-10-19T03:07:04;40.03;;;30.77;;
35961;SDS011;22044;48.298;10.008;2023-10-19T03:09:51;39.67;;;31.70;;
35961;SDS011;22044;48.298;10.008;2023-10-19T03:12:38;42.13;;;32.17;;
35961;SDS011;22044;48.298;10.008;2023-10-19T03:15:24;38.93;;;30.83;;
35961;SDS011;22044;48.298;10.008;2023-10-19T03:18:11;36.20;;;28.90;;
35961;SDS011;22044;48.298;10.008;2023-10-19T03:20:58;38.40;;;30.07;;
35961;SDS011;22044;48.298;10.008;2023-10-19T03:23:44;37.80;;;29.57;;
35961;SDS011;22044;48.298;10.008;2023-10-19T03:26:28;35.00;;;28.63;;
35961;SDS011;22044;48.298;10.008;2023-10-19T03:29:20;33.13;;;26.93;;
35961;SDS011;22044;48.298;10.008;2023-10-19T03:32:07;32.33;;;26.57;;
35961;SDS011;22044;48.298;10.008;2023-10-19T03:34:53;36.73;;;28.77;;
35961;SDS011;22044;48.298;10.008;2023-10-19T03:37:40;30.93;;;25.83;;
35961;SDS011;22044;48.298;10.008;2023-10-19T03:40:26;33.50;;;25.90;;
35961;SDS011;22044;48.298;10.008;2023-10-19T03:43:14;31.70;;;25.97;;
35961;SDS011;22044;48.298;10.008;2023-10-19T03:46:02;30.67;;;25.57;;
35961;SDS011;22044;48.298;10.008;2023-10-19T03:48:53;30.50;;;23.43;;
35961;SDS011;22044;48.298;10.008;2023-10-19T03:51:42;29.37;;;24.87;;
35961;SDS011;22044;48.298;10.008;2023-10-19T03:54:43;31.20;;;24.87;;
35961;SDS011;22044;48.298;10.008;2023-10-19T03:57:28;42.00;;;31.63;;
35961;SDS011;22044;48.298;10.008;2023-10-19T04:00:15;37.27;;;29.40;;
35961;SDS011;22044;48.298;10.008;2023-10-19T04:03:03;29.57;;;25.13;;
35961;SDS011;22044;48.298;10.008;2023-10-19T04:05:48;28.63;;;24.17;;
35961;SDS011;22044;48.298;10.008;2023-10-19T04:08:34;26.20;;;22.17;;
35961;SDS011;22044;48.298;10.008;2023-10-19T04:11:22;27.40;;;23.10;;
35961;SDS011;22044;48.298;10.008;2023-10-19T04:14:16;27.03;;;23.37;;
35961;SDS011;22044;48.298;10.008;2023-10-19T04:17:04;27.83;;;23.63;;
35961;SDS011;22044;48.298;10.008;2023-10-19T04:19:50;27.93;;;22.80;;
35961;SDS011;22044;48.298;10.008;2023-10-19T04:22:37;28.37;;;23.53;;
35961;SDS011;22044;48.298;10.008;2023-10-19T04:25:23;28.73;;;23.10;;
35961;SDS011;22044;48.298;10.008;2023-10-19T04:28:11;25.63;;;22.83;;
35961;SDS011;22044;48.298;10.008;2023-10-19T04:30:58;26.03;;;21.93;;
35961;SDS011;22044;48.298;10.008;2023-10-19T04:33:46;29.77;;;25.97;;
35961;SDS011;22044;48.298;10.008;2023-10-19T04:36:33;28.23;;;23.83;;
35961;SDS011;22044;48.298;10.008;2023-10-19T04:39:19;30.17;;;25.13;;
35961;SDS011;22044;48.298;10.008;2023-10-19T04:42:04;29.30;;;24.40;;
35961;SDS011;22044;48.298;10.008;2023-10-19T04:44:51;28.57;;;23.83;;
35961;SDS011;22044;48.298;10.008;2023-10-19T04:47:37;29.83;;;24.77;;
35961;SDS011;22044;48.298;10.008;2023-10-19T04:50:23;28.83;;;23.93;;
35961;SDS011;22044;48.298;10.008;2023-10-19T04:53:08;29.40;;;23.37;;
35961;SDS011;22044;48.298;10.008;2023-10-19T04:55:54;30.97;;;25.77;;
35961;SDS011;22044;48.298;10.008;2023-10-19T04:58:40;29.30;;;24.23;;
35961;SDS011;22044;48.298;10.008;2023-10-19T05:01:27;29.77;;;25.40;;
35961;SDS011;22044;48.298;10.008;2023-10-19T05:04:12;29.90;;;24.47;;
35961;SDS011;22044;48.298;10.008;2023-10-19T05:07:01;31.37;;;25.53;;
35961;SDS011;22044;48.298;10.008;2023-10-19T05:09:47;31.77;;;25.43;;
35961;SDS011;22044;48.298;10.008;2023-10-19T05:12:32;30.70;;;25.87;;
35961;SDS011;22044;48.298;10.008;2023-10-19T05:15:18;29.53;;;24.93;;
35961;SDS011;22044;48.298;10.008;2023-10-19T05:18:05;33.63;;;27.60;;
35961;SDS011;22044;48.298;10.008;2023-10-19T05:20:51;32.33;;;27.43;;
35961;SDS011;22044;48.298;10.008;2023-10-19T05:23:39;32.97;;;27.10;;
35961;SDS011;22044;48.298;10.008;2023-10-19T05:26:25;35.73;;;28.10;;
35961;SDS011;22044;48.298;10.008;2023-10-19T05:29:11;30.90;;;26.23;;
35961;SDS011;22044;48.298;10.008;2023-10-19T05:31:57;34.40;;;28.10;;
35961;SDS011;22044;48.298;10.008;2023-10-19T05:34:44;30.97;;;25.93;;
35961;SDS011;22044;48.298;10.008;2023-10-19T05:37:29;31.33;;;25.63;;
35961;SDS011;22044;48.298;10.008;2023-10-19T05:40:15;29.37;;;25.00;;
35961;SDS011;22044;48.298;10.008;2023-10-19T05:43:03;30.77;;;25.43;;
35961;SDS011;22044;48.298;10.008;2023-10-19T05:45:49;30.47;;;23.50;;
35961;SDS011;22044;48.298;10.008;2023-10-19T05:48:35;33.13;;;27.47;;
35961;SDS011;22044;48.298;10.008;2023-10-19T05:51:22;35.10;;;26.43;;
35961;SDS011;22044;48.298;10.008;2023-10-19T05:54:07;29.67;;;25.20;;
35961;SDS011;22044;48.298;10.008;2023-10-19T05:56:53;31.33;;;26.73;;
35961;SDS011;22044;48.298;10.008;2023-10-19T05:59:38;35.17;;;28.67;;
35961;SDS011;22044;48.298;10.008;2023-10-19T06:02:24;28.17;;;24.73;;
35961;SDS011;22044;48.298;10.008;2023-10-19T06:05:10;34.90;;;29.80;;
35961;SDS011;22044;48.298;10.008;2023-10-19T06:07:57;37.23;;;32.43;;
35961;SDS011;22044;48.298;10.008;2023-10-19T06:10:43;32.10;;;26.90;;
35961;SDS011;22044;48.298;10.008;2023-10-19T06:13:36;34.20;;;29.57;;
35961;SDS011;22044;48.298;10.008;2023-10-19T06:16:21;31.37;;;26.47;;
35961;SDS011;22044;48.298;10.008;2023-10-19T06:19:08;33.30;;;28.77;;
35961;SDS011;22044;48.298;10.008;2023-10-19T06:21:53;30.83;;;25.43;;
35961;SDS011;22044;48.298;10.008;2023-10-19T06:24:40;32.80;;;27.17;;
35961;SDS011;22044;48.298;10.008;2023-10-19T06:27:27;29.47;;;26.00;;
35961;SDS011;22044;48.298;10.008;2023-10-19T06:30:13;32.27;;;26.13;;
35961;SDS011;22044;48.298;10.008;2023-10-19T06:33:02;32.50;;;26.13;;
35961;SDS011;22044;48.298;10.008;2023-10-19T06:35:49;31.93;;;25.57;;
35961;SDS011;22044;48.298;10.008;2023-10-19T06:38:34;32.10;;;26.40;;
35961;SDS011;22044;48.298;10.008;2023-10-19T06:41:22;29.73;;;23.80;;
35961;SDS011;22044;48.298;10.008;2023-10-19T06:44:07;33.37;;;26.57;;
35961;SDS011;22044;48.298;10.008;2023-10-19T06:46:53;33.87;;;28.27;;
35961;SDS011;22044;48.298;10.008;2023-10-19T06:49:39;32.60;;;26.07;;
35961;SDS011;22044;48.298;10.008;2023-10-19T06:52:25;35.60;;;28.00;;
35961;SDS011;22044;48.298;10.008;2023-10-19T06:55:10;38.77;;;28.27;;
35961;SDS011;22044;48.298;10.008;2023-10-19T06:57:59;35.83;;;28.17;;
35961;SDS011;22044;48.298;10.008;2023-10-19T07:00:45;33.17;;;26.90;;
35961;SDS011;22044;48.298;10.008;2023-10-19T07:03:39;34.40;;;27.97;;
35961;SDS011;22044;48.298;10.008;2023-10-19T07:06:25;33.53;;;27.27;;
35961;SDS011;22044;48.298;10.008;2023-10-19T07:09:11;37.63;;;28.47;;
35961;SDS011;22044;48.298;10.008;2023-10-19T07:11:56;35.00;;;27.17;;
35961;SDS011;22044;48.298;10.008;2023-10-19T07:14:43;31.53;;;26.90;;
35961;SDS011;22044;48.298;10.008;2023-10-19T07:17:29;36.10;;;27.53;;
35961;SDS011;22044;48.298;10.008;2023-10-19T07:20:16;40.63;;;26.70;;
35961;SDS011;22044;48.298;10.008;2023-10-19T07:23:09;33.07;;;27.07;;
35961;SDS011;22044;48.298;10.008;2023-10-19T07:26:03;35.10;;;26.87;;
35961;SDS011;22044;48.298;10.008;2023-10-19T07:28:50;36.47;;;28.50;;
35961;SDS011;22044;48.298;10.008;2023-10-19T07:31:37;35.73;;;27.73;;
35961;SDS011;22044;48.298;10.008;2023-10-19T07:34:22;31.43;;;26.97;;
35961;SDS011;22044;48.298;10.008;2023-10-19T07:37:12;31.30;;;26.47;;
35961;SDS011;22044;48.298;10.008;2023-10-19T07:39:58;30.87;;;25.43;;
35961;SDS011;22044;48.298;10.008;2023-10-19T07:42:44;29.10;;;24.60;;
35961;SDS011;22044;48.298;10.008;2023-10-19T07:45:30;31.17;;;26.47;;
35961;SDS011;22044;48.298;10.008;2023-10-19T07:48:19;30.40;;;24.40;;
35961;SDS011;22044;48.298;10.008;2023-10-19T07:51:04;34.37;;;27.77;;
35961;SDS011;22044;48.298;10.008;2023-10-19T07:53:51;32.57;;;25.60;;
35961;SDS011;22044;48.298;10.008;2023-10-19T07:56:37;31.90;;;25.97;;
35961;SDS011;22044;48.298;10.008;2023-10-19T07:59:23;33.63;;;24.97;;
35961;SDS011;22044;48.298;10.008;2023-10-19T08:02:08;34.23;;;26.27;;
35961;SDS011;22044;48.298;10.008;2023-10-19T08:04:55;31.47;;;25.57;;
35961;SDS011;22044;48.298;10.008;2023-10-19T08:07:41;31.03;;;26.73;;
35961;SDS011;22044;48.298;10.008;2023-10-19T08:10:27;29.63;;;24.47;;
35961;SDS011;22044;48.298;10.008;2023-10-19T08:13:13;31.53;;;25.37;;
35961;SDS011;22044;48.298;10.008;2023-10-19T08:15:58;34.17;;;25.60;;
35961;SDS011;22044;48.298;10.008;2023-10-19T08:18:44;27.77;;;23.73;;
35961;SDS011;22044;48.298;10.008;2023-10-19T08:21:31;27.70;;;24.23;;
35961;SDS011;22044;48.298;10.008;2023-10-19T08:24:17;31.43;;;24.23;;
35961;SDS011;22044;48.298;10.008;2023-10-19T08:27:04;32.03;;;26.03;;
35961;SDS011;22044;48.298;10.008;2023-10-19T08:29:50;33.57;;;25.87;;
35961;SDS011;22044;48.298;10.008;2023-10-19T08:32:36;31.63;;;25.87;;
35961;SDS011;22044;48.298;10.008;2023-10-19T08:35:21;29.03;;;25.23;;
35961;SDS011;22044;48.298;10.008;2023-10-19T08:38:10;28.47;;;24.50;;
35961;SDS011;22044;48.298;10.008;2023-10-19T08:40:56;30.93;;;25.53;;
35961;SDS011;22044;48.298;10.008;2023-10-19T08:43:43;30.27;;;25.70;;
35961;SDS011;22044;48.298;10.008;2023-10-19T08:46:29;30.50;;;25.70;;
35961;SDS011;22044;48.298;10.008;2023-10-19T08:49:15;31.57;;;26.13;;
35961;SDS011;22044;48.298;10.008;2023-10-19T08:52:03;31.07;;;25.60;;
35961;SDS011;22044;48.298;10.008;2023-10-19T08:54:53;31.33;;;26.47;;
35961;SDS011;22044;48.298;10.008;2023-10-19T08:57:39;40.07;;;34.00;;
35961;SDS011;22044;48.298;10.008;2023-10-19T09:00:24;38.63;;;30.60;;
35961;SDS011;22044;48.298;10.008;2023-10-19T09:03:10;35.90;;;30.10;;
35961;SDS011;22044;48.298;10.008;2023-10-19T09:06:00;35.77;;;31.70;;
35961;SDS011;22044;48.298;10.008;2023-10-19T09:08:46;31.80;;;27.37;;
35961;SDS011;22044;48.298;10.008;2023-10-19T09:11:34;29.47;;;25.90;;
35961;SDS011;22044;48.298;10.008;2023-10-19T09:14:30;34.13;;;27.63;;
35961;SDS011;22044;48.298;10.008;2023-10-19T09:17:19;30.03;;;26.20;;
35961;SDS011;22044;48.298;10.008;2023-10-19T09:20:13;31.30;;;26.13;;
35961;SDS011;22044;48.298;10.008;2023-10-19T09:23:02;30.53;;;26.93;;
35961;SDS011;22044;48.298;10.008;2023-10-19T09:25:48;31.90;;;27.03;;
35961;SDS011;22044;48.298;10.008;2023-10-19T09:28:38;32.27;;;27.10;;
35961;SDS011;22044;48.298;10.008;2023-10-19T09:31:24;31.80;;;27.30;;
35961;SDS011;22044;48.298;10.008;2023-10-19T09:34:09;29.97;;;26.27;;
35961;SDS011;22044;48.298;10.008;2023-10-19T09:36:55;33.50;;;27.67;;
35961;SDS011;22044;48.298;10.008;2023-10-19T09:39:41;34.17;;;28.00;;
35961;SDS011;22044;48.298;10.008;2023-10-19T09:42:27;35.00;;;28.70;;
35961;SDS011;22044;48.298;10.008;2023-10-19T09:45:16;30.37;;;26.90;;
35961;SDS011;22044;48.298;10.008;2023-10-19T09:48:05;29.43;;;26.23;;
35961;SDS011;22044;48.298;10.008;2023-10-19T09:50:53;29.53;;;25.40;;
35961;SDS011;22044;48.298;10.008;2023-10-19T09:53:40;29.60;;;26.00;;
35961;SDS011;22044;48.298;10.008;2023-10-19T09:56:28;36.30;;;29.03;;
35961;SDS011;22044;48.298;10.008;2023-10-19T09:59:22;31.47;;;26.57;;
35961;SDS011;22044;48.298;10.008;2023-10-19T10:02:17;32.83;;;27.73;;
35961;SDS011;22044;48.298;10.008;2023-10-19T10:05:18;31.83;;;27.07;;
35961;SDS011;22044;48.298;10.008;2023-10-19T10:08:31;29.87;;;25.80;;
35961;SDS011;22044;48.298;10.008;2023-10-19T10:11:18;33.97;;;26.77;;
35961;SDS011;22044;48.298;10.008;2023-10-19T10:14:04;31.57;;;26.17;;
35961;SDS011;22044;48.298;10.008;2023-10-19T10:17:08;32.60;;;26.73;;
35961;SDS011;22044;48.298;10.008;2023-10-19T10:23:18;33.37;;;28.07;;
35961;SDS011;22044;48.298;10.008;2023-10-19T10:26:09;36.37;;;29.23;;
35961;SDS011;22044;48.298;10.008;2023-10-19T10:29:07;36.60;;;29.30;;
35961;SDS011;22044;48.298;10.008;2023-10-19T10:31:55;38.13;;;30.93;;
35961;SDS011;22044;48.298;10.008;2023-10-19T10:34:43;37.80;;;30.73;;
35961;SDS011;22044;48.298;10.008;2023-10-19T10:37:29;39.17;;;29.73;;
35961;SDS011;22044;48.298;10.008;2023-10-19T10:40:17;35.77;;;30.33;;
35961;SDS011;22044;48.298;10.008;2023-10-19T10:43:05;38.30;;;31.23;;
35961;SDS011;22044;48.298;10.008;2023-10-19T10:45:50;37.50;;;29.50;;
35961;SDS011;22044;48.298;10.008;2023-10-19T10:48:40;35.50;;;29.37;;
35961;SDS011;22044;48.298;10.008;2023-10-19T10:51:27;41.80;;;32.60;;
35961;SDS011;22044;48.298;10.008;2023-10-19T10:54:13;34.37;;;29.03;;
35961;SDS011;22044;48.298;10.008;2023-10-19T10:56:58;38.50;;;32.73;;
35961;SDS011;22044;48.298;10.008;2023-10-19T10:59:44;39.33;;;31.27;;
35961;SDS011;22044;48.298;10.008;2023-10-19T11:02:30;36.30;;;31.97;;
35961;SDS011;22044;48.298;10.008;2023-10-19T11:05:16;40.57;;;34.60;;
35961;SDS011;22044;48.298;10.008;2023-10-19T11:08:08;37.30;;;31.27;;
35961;SDS011;22044;48.298;10.008;2023-10-19T11:10:57;36.20;;;30.60;;
35961;SDS011;22044;48.298;10.008;2023-10-19T11:13:48;36.40;;;31.13;;
35961;SDS011;22044;48.298;10.008;2023-10-19T11:16:34;34.10;;;28.40;;
35961;SDS011;22044;48.298;10.008;2023-10-19T11:19:19;37.93;;;31.37;;
35961;SDS011;22044;48.298;10.008;2023-10-19T11:22:09;36.97;;;31.33;;
35961;SDS011;22044;48.298;10.008;2023-10-19T11:24:56;34.80;;;30.47;;
35961;SDS011;22044;48.298;10.008;2023-10-19T11:28:02;40.03;;;31.93;;
35961;SDS011;22044;48.298;10.008;2023-10-19T11:31:12;39.20;;;30.50;;
35961;SDS011;22044;48.298;10.008;2023-10-19T11:34:01;34.77;;;30.13;;
35961;SDS011;22044;48.298;10.008;2023-10-19T11:36:47;36.23;;;30.67;;
35961;SDS011;22044;48.298;10.008;2023-10-19T11:39:40;32.87;;;28.23;;
35961;SDS011;22044;48.298;10.008;2023-10-19T11:42:27;35.57;;;30.13;;
35961;SDS011;22044;48.298;10.008;2023-10-19T11:45:12;36.83;;;30.13;;
35961;SDS011;22044;48.298;10.008;2023-10-19T11:48:00;36.40;;;30.63;;
35961;SDS011;22044;48.298;10.008;2023-10-19T11:50:45;36.57;;;30.17;;
35961;SDS011;22044;48.298;10.008;2023-10-19T11:53:31;36.60;;;28.63;;
35961;SDS011;22044;48.298;10.008;2023-10-19T11:56:17;36.10;;;31.63;;
35961;SDS011;22044;48.298;10.008;2023-10-19T11:59:06;38.07;;;31.63;;
35961;SDS011;22044;48.298;10.008;2023-10-19T12:01:55;35.10;;;30.30;;
35961;SDS011;22044;48.298;10.008;2023-10-19T12:04:42;37.87;;;32.23;;
35961;SDS011;22044;48.298;10.008;2023-10-19T12:07:29;39.37;;;33.63;;
35961;SDS011;22044;48.298;10.008;2023-10-19T12:10:14;43.13;;;33.80;;
35961;SDS011;22044;48.298;10.008;2023-10-19T12:13:02;35.77;;;31.87;;
35961;SDS011;22044;48.298;10.008;2023-10-19T12:15:51;38.97;;;32.93;;
35961;SDS011;22044;48.298;10.008;2023-10-19T12:18:38;39.27;;;34.40;;
35961;SDS011;22044;48.298;10.008;2023-10-19T12:21:25;35.40;;;29.63;;
35961;SDS011;22044;48.298;10.008;2023-10-19T12:24:14;34.63;;;30.13;;
35961;SDS011;22044;48.298;10.008;2023-10-19T12:27:00;31.40;;;27.13;;
35961;SDS011;22044;48.298;10.008;2023-10-19T12:29:45;30.53;;;26.43;;
35961;SDS011;22044;48.298;10.008;2023-10-19T12:32:32;27.70;;;24.80;;
35961;SDS011;22044;48.298;10.008;2023-10-19T12:35:20;27.77;;;24.87;;
35961;SDS011;22044;48.298;10.008;2023-10-19T12:38:14;24.57;;;21.93;;
35961;SDS011;22044;48.298;10.008;2023-10-19T12:41:04;23.70;;;21.30;;
35961;SDS011;22044;48.298;10.008;2023-10-19T12:43:51;22.77;;;19.53;;
35961;SDS011;22044;48.298;10.008;2023-10-19T12:46:41;21.40;;;19.20;;
35961;SDS011;22044;48.298;10.008;2023-10-19T12:49:28;21.57;;;19.37;;
35961;SDS011;22044;48.298;10.008;2023-10-19T12:52:14;19.20;;;17.17;;
35961;SDS011;22044;48.298;10.008;2023-10-19T12:55:00;19.17;;;17.10;;
35961;SDS011;22044;48.298;10.008;2023-10-19T12:57:48;19.67;;;17.67;;
35961;SDS011;22044;48.298;10.008;2023-10-19T13:00:35;18.50;;;15.60;;
35961;SDS011;22044;48.298;10.008;2023-10-19T13:03:24;16.23;;;14.17;;
35961;SDS011;22044;48.298;10.008;2023-10-19T13:06:13;17.97;;;16.10;;
35961;SDS011;22044;48.298;10.008;2023-10-19T13:09:00;18.20;;;16.40;;
35961;SDS011;22044;48.298;10.008;2023-10-19T13:11:47;16.40;;;14.77;;
35961;SDS011;22044;48.298;10.008;2023-10-19T13:14:35;17.00;;;14.20;;
35961;SDS011;22044;48.298;10.008;2023-10-19T13:17:21;16.57;;;14.87;;
35961;SDS011;22044;48.298;10.008;2023-10-19T13:20:08;16.07;;;14.47;;
35961;SDS011;22044;48.298;10.008;2023-10-19T13:23:03;16.37;;;14.67;;
35961;SDS011;22044;48.298;10.008;2023-10-19T13:25:50;16.00;;;14.40;;
35961;SDS011;22044;48.298;10.008;2023-10-19T13:28:38;14.37;;;12.77;;
35961;SDS011;22044;48.298;10.008;2023-10-19T13:31:24;14.03;;;12.63;;
35961;SDS011;22044;48.298;10.008;2023-10-19T13:34:10;15.13;;;13.47;;
35961;SDS011;22044;48.298;10.008;2023-10-19T13:36:56;18.43;;;16.53;;
35961;SDS011;22044;48.298;10.008;2023-10-19T13:39:43;18.43;;;16.53;;
35961;SDS011;22044;48.298;10.008;2023-10-19T13:42:29;19.37;;;17.50;;
35961;SDS011;22044;48.298;10.008;2023-10-19T13:45:15;20.50;;;18.40;;
35961;SDS011;22044;48.298;10.008;2023-10-19T13:48:00;20.87;;;18.83;;
35961;SDS011;22044;48.298;10.008;2023-10-19T13:50:47;17.93;;;16.10;;
35961;SDS011;22044;48.298;10.008;2023-10-19T13:53:33;20.40;;;18.43;;
35961;SDS011;22044;48.298;10.008;2023-10-19T13:56:20;21.03;;;18.83;;
35961;SDS011;22044;48.298;10.008;2023-10-19T13:59:06;21.00;;;18.90;;
35961;SDS011;22044;48.298;10.008;2023-10-19T14:01:51;21.40;;;19.10;;
35961;SDS011;22044;48.298;10.008;2023-10-19T14:04:37;22.53;;;20.23;;
35961;SDS011;22044;48.298;10.008;2023-10-19T14:07:22;22.77;;;20.37;;
35961;SDS011;22044;48.298;10.008;2023-10-19T14:10:08;23.20;;;20.80;;
35961;SDS011;22044;48.298;10.008;2023-10-19T14:12:57;22.20;;;19.17;;
35961;SDS011;22044;48.298;10.008;2023-10-19T14:15:43;22.93;;;20.60;;
35961;SDS011;22044;48.298;10.008;2023-10-19T14:18:29;22.63;;;20.03;;
35961;SDS011;22044;48.298;10.008;2023-10-19T14:21:15;24.63;;;22.00;;
35961;SDS011;22044;48.298;10.008;2023-10-19T14:24:03;22.97;;;20.67;;
35961;SDS011;22044;48.298;10.008;2023-10-19T14:26:51;21.90;;;19.03;;
35961;SDS011;22044;48.298;10.008;2023-10-19T14:29:39;23.30;;;20.80;;
35961;SDS011;22044;48.298;10.008;2023-10-19T14:32:24;22.13;;;19.83;;
35961;SDS011;22044;48.298;10.008;2023-10-19T14:35:11;22.50;;;20.07;;
35961;SDS011;22044;48.298;10.008;2023-10-19T14:37:58;22.10;;;19.70;;
35961;SDS011;22044;48.298;10.008;2023-10-19T14:40:44;23.43;;;19.93;;
35961;SDS011;22044;48.298;10.008;2023-10-19T14:43:32;21.47;;;19.17;;
35961;SDS011;22044;48.298;10.008;2023-10-19T14:46:19;21.33;;;19.13;;
35961;SDS011;22044;48.298;10.008;2023-10-19T14:49:04;20.77;;;18.57;;
35961;SDS011;22044;48.298;10.008;2023-10-19T14:51:50;21.00;;;17.90;;
35961;SDS011;22044;48.298;10.008;2023-10-19T14:54:36;21.07;;;18.73;;
35961;SDS011;22044;48.298;10.008;2023-10-19T14:57:21;20.10;;;18.07;;
35961;SDS011;22044;48.298;10.008;2023-10-19T15:00:09;22.97;;;19.33;;
35961;SDS011;22044;48.298;10.008;2023-10-19T15:03:01;22.23;;;19.97;;
35961;SDS011;22044;48.298;10.008;2023-10-19T15:05:51;21.87;;;19.67;;
35961;SDS011;22044;48.298;10.008;2023-10-19T15:08:37;21.57;;;19.30;;
35961;SDS011;22044;48.298;10.008;2023-10-19T15:11:22;22.03;;;19.93;;
35961;SDS011;22044;48.298;10.008;2023-10-19T15:14:09;22.83;;;20.50;;
35961;SDS011;22044;48.298;10.008;2023-10-19T15:16:55;25.13;;;22.53;;
35961;SDS011;22044;48.298;10.008;2023-10-19T15:19:43;23.37;;;20.80;;
35961;SDS011;22044;48.298;10.008;2023-10-19T15:22:28;23.83;;;21.37;;
35961;SDS011;22044;48.298;10.008;2023-10-19T15:25:15;24.30;;;21.53;;
35961;SDS011;22044;48.298;10.008;2023-10-19T15:28:04;25.47;;;22.47;;
35961;SDS011;22044;48.298;10.008;2023-10-19T15:30:50;24.17;;;21.47;;
35961;SDS011;22044;48.298;10.008;2023-10-19T15:33:35;24.10;;;20.57;;
35961;SDS011;22044;48.298;10.008;2023-10-19T15:36:23;24.27;;;21.00;;
35961;SDS011;22044;48.298;10.008;2023-10-19T15:39:09;24.43;;;21.83;;
35961;SDS011;22044;48.298;10.008;2023-10-19T15:41:54;23.83;;;21.17;;
35961;SDS011;22044;48.298;10.008;2023-10-19T15:44:40;30.23;;;24.13;;
35961;SDS011;22044;48.298;10.008;2023-10-19T15:47:25;26.73;;;22.43;;
35961;SDS011;22044;48.298;10.008;2023-10-19T15:50:11;27.13;;;22.53;;
35961;SDS011;22044;48.298;10.008;2023-10-19T15:52:59;25.20;;;22.50;;
35961;SDS011;22044;48.298;10.008;2023-10-19T15:55:44;28.83;;;23.63;;
35961;SDS011;22044;48.298;10.008;2023-10-19T15:58:31;25.53;;;22.87;;
35961;SDS011;22044;48.298;10.008;2023-10-19T16:01:16;25.77;;;22.77;;
35961;SDS011;22044;48.298;10.008;2023-10-19T16:04:02;26.47;;;23.57;;
35961;SDS011;22044;48.298;10.008;2023-10-19T16:06:48;25.90;;;23.10;;
35961;SDS011;22044;48.298;10.008;2023-10-19T16:09:35;25.57;;;22.03;;